sensor_id;sensor_type;location;lat;lon;timestamp;temperature;humidity
35633;DHT22;21754;48.216;-1.628;2022-08-03T00:01:23;23.30;99.90
35633;DHT22;21754;48.216;-1.628;2022-08-03T00:03:49;23.30;99.90
35633;DHT22;21754;48.216;-1.628;2022-08-03T00:06:15;23.20;99.90
35633;DHT22;21754;48.216;-1.628;2022-08-03T00:08:40;23.20;99.90
35633;DHT22;21754;48.216;-1.628;2022-08-03T00:11:06;23.20;99.90
35633;DHT22;21754;48.216;-1.628;2022-08-03T00:13:32;23.20;99.90
35633;DHT22;21754;48.216;-1.628;2022-08-03T00:15:58;23.10;99.90
35633;DHT22;21754;48.216;-1.628;2022-08-03T00:18:24;23.10;99.90
35633;DHT22;21754;48.216;-1.628;2022-08-03T00:20:49;23.00;99.90
35633;DHT22;21754;48.216;-1.628;2022-08-03T00:23:15;23.00;99.90
35633;DHT22;21754;48.216;-1.628;2022-08-03T00:25:41;22.90;99.90
35633;DHT22;21754;48.216;-1.628;2022-08-03T00:28:07;22.90;99.90
35633;DHT22;21754;48.216;-1.628;2022-08-03T00:30:34;22.90;99.90
35633;DHT22;21754;48.216;-1.628;2022-08-03T00:33:00;22.90;99.90
35633;DHT22;21754;48.216;-1.628;2022-08-03T00:35:26;22.80;99.90
35633;DHT22;21754;48.216;-1.628;2022-08-03T00:37:52;22.80;99.90
35633;DHT22;21754;48.216;-1.628;2022-08-03T00:40:19;22.80;99.90
35633;DHT22;21754;48.216;-1.628;2022-08-03T00:42:48;22.70;99.90
35633;DHT22;21754;48.216;-1.628;2022-08-03T00:45:16;22.70;99.90
35633;DHT22;21754;48.216;-1.628;2022-08-03T00:47:42;22.60;99.90
35633;DHT22;21754;48.216;-1.628;2022-08-03T00:50:08;22.60;99.90
35633;DHT22;21754;48.216;-1.628;2022-08-03T00:52:34;22.50;99.90
35633;DHT22;21754;48.216;-1.628;2022-08-03T00:55:01;22.50;99.90
35633;DHT22;21754;48.216;-1.628;2022-08-03T00:57:29;22.40;99.90
35633;DHT22;21754;48.216;-1.628;2022-08-03T00:59:56;22.30;99.90
35633;DHT22;21754;48.216;-1.628;2022-08-03T01:02:22;22.30;99.90
35633;DHT22;21754;48.216;-1.628;2022-08-03T01:04:48;22.50;99.90
35633;DHT22;21754;48.216;-1.628;2022-08-03T01:15:40;22.20;99.90
35633;DHT22;21754;48.216;-1.628;2022-08-03T01:18:13;22.30;99.90
35633;DHT22;21754;48.216;-1.628;2022-08-03T01:20:44;22.40;99.90
35633;DHT22;21754;48.216;-1.628;2022-08-03T01:23:32;22.40;99.90
35633;DHT22;21754;48.216;-1.628;2022-08-03T04:14:04;22.30;99.90
35633;DHT22;21754;48.216;-1.628;2022-08-03T07:39:10;22.20;99.90
35633;DHT22;21754;48.216;-1.628;2022-08-03T07:41:35;24.60;99.90
35633;DHT22;21754;48.216;-1.628;2022-08-03T07:44:01;24.50;99.90
35633;DHT22;21754;48.216;-1.628;2022-08-03T07:46:27;24.40;99.90
35633;DHT22;21754;48.216;-1.628;2022-08-03T07:48:53;24.50;99.90
35633;DHT22;21754;48.216;-1.628;2022-08-03T07:51:19;24.50;99.90
35633;DHT22;21754;48.216;-1.628;2022-08-03T07:53:44;24.50;99.90
35633;DHT22;21754;48.216;-1.628;2022-08-03T07:56:10;24.40;99.90
35633;DHT22;21754;48.216;-1.628;2022-08-03T07:58:35;24.50;99.90
35633;DHT22;21754;48.216;-1.628;2022-08-03T08:01:01;24.60;99.90
35633;DHT22;21754;48.216;-1.628;2022-08-03T08:03:27;24.70;99.90
35633;DHT22;21754;48.216;-1.628;2022-08-03T08:05:53;24.70;99.90
35633;DHT22;21754;48.216;-1.628;2022-08-03T08:08:19;24.80;99.90
35633;DHT22;21754;48.216;-1.628;2022-08-03T08:10:46;24.80;99.90
35633;DHT22;21754;48.216;-1.628;2022-08-03T08:13:12;24.80;99.90
35633;DHT22;21754;48.216;-1.628;2022-08-03T09:07:04;24.80;99.90
35633;DHT22;21754;48.216;-1.628;2022-08-03T09:09:30;25.90;99.90
35633;DHT22;21754;48.216;-1.628;2022-08-03T09:11:56;25.90;99.90
35633;DHT22;21754;48.216;-1.628;2022-08-03T09:25:05;26.10;99.90
35633;DHT22;21754;48.216;-1.628;2022-08-03T09:32:43;26.60;99.90
35633;DHT22;21754;48.216;-1.628;2022-08-03T09:35:11;26.80;99.90
35633;DHT22;21754;48.216;-1.628;2022-08-03T09:37:38;26.90;99.90
35633;DHT22;21754;48.216;-1.628;2022-08-03T09:54:56;27.10;99.90
35633;DHT22;21754;48.216;-1.628;2022-08-03T09:57:23;27.60;99.90
35633;DHT22;21754;48.216;-1.628;2022-08-03T09:59:50;27.60;99.90
35633;DHT22;21754;48.216;-1.628;2022-08-03T10:02:24;27.60;99.90
35633;DHT22;21754;48.216;-1.628;2022-08-03T10:17:12;27.80;99.90
35633;DHT22;21754;48.216;-1.628;2022-08-03T10:19:38;28.00;99.90
35633;DHT22;21754;48.216;-1.628;2022-08-03T10:24:39;28.00;99.90
35633;DHT22;21754;48.216;-1.628;2022-08-03T10:27:11;28.00;99.90
35633;DHT22;21754;48.216;-1.628;2022-08-03T10:32:20;28.10;99.90
35633;DHT22;21754;48.216;-1.628;2022-08-03T10:34:49;28.00;99.90
35633;DHT22;21754;48.216;-1.628;2022-08-03T10:39:46;28.20;99.90
35633;DHT22;21754;48.216;-1.628;2022-08-03T10:42:23;28.50;99.90
35633;DHT22;21754;48.216;-1.628;2022-08-03T10:44:52;28.60;99.90
35633;DHT22;21754;48.216;-1.628;2022-08-03T10:47:20;28.80;99.90
35633;DHT22;21754;48.216;-1.628;2022-08-03T11:15:44;29.00;99.90
35633;DHT22;21754;48.216;-1.628;2022-08-03T11:18:12;28.90;99.90
35633;DHT22;21754;48.216;-1.628;2022-08-03T11:20:50;28.90;99.90
35633;DHT22;21754;48.216;-1.628;2022-08-03T11:23:19;29.10;99.90
35633;DHT22;21754;48.216;-1.628;2022-08-03T11:26:10;29.10;99.90
35633;DHT22;21754;48.216;-1.628;2022-08-03T11:28:37;29.10;99.90
35633;DHT22;21754;48.216;-1.628;2022-08-03T11:34:07;29.30;99.90
35633;DHT22;21754;48.216;-1.628;2022-08-03T11:39:43;29.60;99.90
35633;DHT22;21754;48.216;-1.628;2022-08-03T11:44:49;29.80;99.90
35633;DHT22;21754;48.216;-1.628;2022-08-03T11:47:15;29.90;99.90
35633;DHT22;21754;48.216;-1.628;2022-08-03T11:49:47;30.00;99.90
35633;DHT22;21754;48.216;-1.628;2022-08-03T11:52:13;30.10;99.90
35633;DHT22;21754;48.216;-1.628;2022-08-03T11:54:40;30.10;99.90
35633;DHT22;21754;48.216;-1.628;2022-08-03T12:29:21;30.00;99.90
35633;DHT22;21754;48.216;-1.628;2022-08-03T12:41:43;31.30;99.90
35633;DHT22;21754;48.216;-1.628;2022-08-03T12:44:09;31.50;99.90
35633;DHT22;21754;48.216;-1.628;2022-08-03T12:46:39;31.60;99.90
35633;DHT22;21754;48.216;-1.628;2022-08-03T12:49:09;31.50;99.90
35633;DHT22;21754;48.216;-1.628;2022-08-03T12:54:09;31.50;99.90
35633;DHT22;21754;48.216;-1.628;2022-08-03T12:56:35;31.30;99.90
35633;DHT22;21754;48.216;-1.628;2022-08-03T12:59:24;31.30;99.90
35633;DHT22;21754;48.216;-1.628;2022-08-03T13:01:51;31.50;99.90
35633;DHT22;21754;48.216;-1.628;2022-08-03T13:06:57;31.90;99.90
35633;DHT22;21754;48.216;-1.628;2022-08-03T13:09:22;32.20;99.90
35633;DHT22;21754;48.216;-1.628;2022-08-03T13:12:06;32.20;99.90
35633;DHT22;21754;48.216;-1.628;2022-08-03T13:14:32;32.10;99.90
35633;DHT22;21754;48.216;-1.628;2022-08-03T13:16:58;32.20;99.90
35633;DHT22;21754;48.216;-1.628;2022-08-03T13:19:24;32.30;99.90
35633;DHT22;21754;48.216;-1.628;2022-08-03T13:21:50;32.40;99.90
35633;DHT22;21754;48.216;-1.628;2022-08-03T13:24:15;32.70;99.90
35633;DHT22;21754;48.216;-1.628;2022-08-03T13:26:41;32.80;99.90
35633;DHT22;21754;48.216;-1.628;2022-08-03T13:29:06;32.90;99.90
35633;DHT22;21754;48.216;-1.628;2022-08-03T13:31:32;33.20;99.90
35633;DHT22;21754;48.216;-1.628;2022-08-03T13:33:58;33.30;99.90
35633;DHT22;21754;48.216;-1.628;2022-08-03T13:36:23;33.20;99.90
35633;DHT22;21754;48.216;-1.628;2022-08-03T13:38:49;33.30;99.90
35633;DHT22;21754;48.216;-1.628;2022-08-03T13:41:15;33.30;99.90
35633;DHT22;21754;48.216;-1.628;2022-08-03T13:43:41;33.40;99.90
35633;DHT22;21754;48.216;-1.628;2022-08-03T13:46:06;33.40;99.90
35633;DHT22;21754;48.216;-1.628;2022-08-03T13:48:32;33.50;99.90
35633;DHT22;21754;48.216;-1.628;2022-08-03T13:50:58;33.50;99.90
35633;DHT22;21754;48.216;-1.628;2022-08-03T13:53:23;33.40;99.90
35633;DHT22;21754;48.216;-1.628;2022-08-03T13:55:50;33.50;99.90
35633;DHT22;21754;48.216;-1.628;2022-08-03T13:58:16;33.60;99.90
35633;DHT22;21754;48.216;-1.628;2022-08-03T14:00:41;33.60;99.90
35633;DHT22;21754;48.216;-1.628;2022-08-03T14:03:07;33.60;98.70
35633;DHT22;21754;48.216;-1.628;2022-08-03T14:05:33;33.40;98.70
35633;DHT22;21754;48.216;-1.628;2022-08-03T14:08:00;33.40;99.90
35633;DHT22;21754;48.216;-1.628;2022-08-03T14:10:26;33.40;99.90
35633;DHT22;21754;48.216;-1.628;2022-08-03T14:12:52;33.70;99.90
35633;DHT22;21754;48.216;-1.628;2022-08-03T14:15:17;33.70;98.30
35633;DHT22;21754;48.216;-1.628;2022-08-03T14:17:43;33.70;97.60
35633;DHT22;21754;48.216;-1.628;2022-08-03T14:20:09;33.70;98.10
35633;DHT22;21754;48.216;-1.628;2022-08-03T14:22:37;33.80;99.50
35633;DHT22;21754;48.216;-1.628;2022-08-03T14:25:03;33.90;98.20
35633;DHT22;21754;48.216;-1.628;2022-08-03T14:27:29;33.80;96.90
35633;DHT22;21754;48.216;-1.628;2022-08-03T14:29:54;33.70;97.50
35633;DHT22;21754;48.216;-1.628;2022-08-03T14:32:24;33.60;98.40
35633;DHT22;21754;48.216;-1.628;2022-08-03T14:34:50;33.40;99.20
35633;DHT22;21754;48.216;-1.628;2022-08-03T14:37:16;32.90;99.50
35633;DHT22;21754;48.216;-1.628;2022-08-03T14:39:41;32.80;99.90
35633;DHT22;21754;48.216;-1.628;2022-08-03T14:42:08;32.80;99.90
35633;DHT22;21754;48.216;-1.628;2022-08-03T14:44:33;33.00;99.90
35633;DHT22;21754;48.216;-1.628;2022-08-03T14:46:59;33.10;99.90
35633;DHT22;21754;48.216;-1.628;2022-08-03T14:49:24;33.30;99.90
35633;DHT22;21754;48.216;-1.628;2022-08-03T14:51:51;33.50;99.90
35633;DHT22;21754;48.216;-1.628;2022-08-03T14:54:16;33.60;99.10
35633;DHT22;21754;48.216;-1.628;2022-08-03T14:56:42;33.50;98.90
35633;DHT22;21754;48.216;-1.628;2022-08-03T14:59:07;33.50;98.90
35633;DHT22;21754;48.216;-1.628;2022-08-03T15:01:33;33.40;98.40
35633;DHT22;21754;48.216;-1.628;2022-08-03T15:03:59;33.40;99.60
35633;DHT22;21754;48.216;-1.628;2022-08-03T15:06:24;33.50;98.40
35633;DHT22;21754;48.216;-1.628;2022-08-03T15:08:50;33.50;98.10
35633;DHT22;21754;48.216;-1.628;2022-08-03T15:11:15;33.60;98.60
35633;DHT22;21754;48.216;-1.628;2022-08-03T15:13:41;33.50;98.90
35633;DHT22;21754;48.216;-1.628;2022-08-03T15:16:07;33.30;99.90
35633;DHT22;21754;48.216;-1.628;2022-08-03T15:18:33;33.50;99.90
35633;DHT22;21754;48.216;-1.628;2022-08-03T15:20:59;33.50;99.40
35633;DHT22;21754;48.216;-1.628;2022-08-03T15:23:24;33.30;99.90
35633;DHT22;21754;48.216;-1.628;2022-08-03T15:25:51;33.20;99.40
35633;DHT22;21754;48.216;-1.628;2022-08-03T15:28:16;33.00;99.10
35633;DHT22;21754;48.216;-1.628;2022-08-03T15:30:42;32.80;99.50
35633;DHT22;21754;48.216;-1.628;2022-08-03T15:33:08;32.60;99.40
35633;DHT22;21754;48.216;-1.628;2022-08-03T15:35:34;32.70;99.90
35633;DHT22;21754;48.216;-1.628;2022-08-03T15:38:00;32.70;99.90
35633;DHT22;21754;48.216;-1.628;2022-08-03T15:40:25;32.80;99.90
35633;DHT22;21754;48.216;-1.628;2022-08-03T15:42:51;32.70;99.90
35633;DHT22;21754;48.216;-1.628;2022-08-03T15:45:16;32.60;99.60
35633;DHT22;21754;48.216;-1.628;2022-08-03T15:47:42;32.70;99.90
35633;DHT22;21754;48.216;-1.628;2022-08-03T15:50:08;32.80;99.90
35633;DHT22;21754;48.216;-1.628;2022-08-03T15:52:33;32.60;99.10
35633;DHT22;21754;48.216;-1.628;2022-08-03T15:54:59;32.50;99.70
35633;DHT22;21754;48.216;-1.628;2022-08-03T15:57:25;32.20;99.70
35633;DHT22;21754;48.216;-1.628;2022-08-03T15:59:50;32.00;99.90
35633;DHT22;21754;48.216;-1.628;2022-08-03T16:02:16;31.90;99.90
35633;DHT22;21754;48.216;-1.628;2022-08-03T16:04:42;31.70;99.90
35633;DHT22;21754;48.216;-1.628;2022-08-03T16:07:07;31.60;99.90
35633;DHT22;21754;48.216;-1.628;2022-08-03T16:09:33;31.60;99.90
35633;DHT22;21754;48.216;-1.628;2022-08-03T16:11:59;31.70;99.90
35633;DHT22;21754;48.216;-1.628;2022-08-03T16:14:24;31.90;99.90
35633;DHT22;21754;48.216;-1.628;2022-08-03T16:16:50;31.80;99.90
35633;DHT22;21754;48.216;-1.628;2022-08-03T16:19:16;31.80;99.90
35633;DHT22;21754;48.216;-1.628;2022-08-03T16:21:41;31.80;99.90
35633;DHT22;21754;48.216;-1.628;2022-08-03T16:24:07;31.90;99.90
35633;DHT22;21754;48.216;-1.628;2022-08-03T16:26:32;31.90;99.90
35633;DHT22;21754;48.216;-1.628;2022-08-03T16:28:58;32.00;99.90
35633;DHT22;21754;48.216;-1.628;2022-08-03T16:31:24;31.80;99.50
35633;DHT22;21754;48.216;-1.628;2022-08-03T16:33:52;31.50;99.20
35633;DHT22;21754;48.216;-1.628;2022-08-03T16:36:18;31.20;99.40
35633;DHT22;21754;48.216;-1.628;2022-08-03T16:38:44;31.10;99.80
35633;DHT22;21754;48.216;-1.628;2022-08-03T16:41:09;31.00;99.90
35633;DHT22;21754;48.216;-1.628;2022-08-03T16:43:35;30.90;99.90
35633;DHT22;21754;48.216;-1.628;2022-08-03T16:46:01;30.90;99.60
35633;DHT22;21754;48.216;-1.628;2022-08-03T16:48:26;30.80;98.90
35633;DHT22;21754;48.216;-1.628;2022-08-03T16:50:52;30.70;98.10
35633;DHT22;21754;48.216;-1.628;2022-08-03T16:53:18;30.50;98.20
35633;DHT22;21754;48.216;-1.628;2022-08-03T16:55:44;30.40;97.60
35633;DHT22;21754;48.216;-1.628;2022-08-03T16:58:12;30.30;98.50
35633;DHT22;21754;48.216;-1.628;2022-08-03T17:00:39;30.40;98.60
35633;DHT22;21754;48.216;-1.628;2022-08-03T17:03:06;30.50;98.80
35633;DHT22;21754;48.216;-1.628;2022-08-03T17:05:33;30.50;99.10
35633;DHT22;21754;48.216;-1.628;2022-08-03T17:08:00;30.70;99.30
35633;DHT22;21754;48.216;-1.628;2022-08-03T17:10:26;30.60;99.70
35633;DHT22;21754;48.216;-1.628;2022-08-03T17:12:51;30.50;99.90
35633;DHT22;21754;48.216;-1.628;2022-08-03T17:15:17;30.40;99.90
35633;DHT22;21754;48.216;-1.628;2022-08-03T17:17:50;30.30;99.90
35633;DHT22;21754;48.216;-1.628;2022-08-03T17:20:18;30.20;99.90
35633;DHT22;21754;48.216;-1.628;2022-08-03T17:22:55;30.30;99.90
35633;DHT22;21754;48.216;-1.628;2022-08-03T17:25:23;30.00;99.90
35633;DHT22;21754;48.216;-1.628;2022-08-03T17:27:51;29.70;99.70
35633;DHT22;21754;48.216;-1.628;2022-08-03T17:30:17;29.60;99.80
35633;DHT22;21754;48.216;-1.628;2022-08-03T17:32:44;29.70;99.90
35633;DHT22;21754;48.216;-1.628;2022-08-03T17:35:13;29.60;99.90
35633;DHT22;21754;48.216;-1.628;2022-08-03T17:37:40;29.70;99.90
35633;DHT22;21754;48.216;-1.628;2022-08-03T17:40:08;29.60;99.90
35633;DHT22;21754;48.216;-1.628;2022-08-03T17:42:35;29.50;99.90
35633;DHT22;21754;48.216;-1.628;2022-08-03T17:45:02;29.40;99.90
35633;DHT22;21754;48.216;-1.628;2022-08-03T17:47:28;29.30;99.90
35633;DHT22;21754;48.216;-1.628;2022-08-03T17:49:54;29.30;99.90
35633;DHT22;21754;48.216;-1.628;2022-08-03T17:52:34;29.10;99.90
35633;DHT22;21754;48.216;-1.628;2022-08-03T17:55:02;28.90;99.90
35633;DHT22;21754;48.216;-1.628;2022-08-03T18:00:16;28.70;99.90
35633;DHT22;21754;48.216;-1.628;2022-08-03T18:05:56;28.40;99.90
35633;DHT22;21754;48.216;-1.628;2022-08-03T18:08:22;28.20;99.90
35633;DHT22;21754;48.216;-1.628;2022-08-03T18:11:05;28.20;99.90
35633;DHT22;21754;48.216;-1.628;2022-08-03T18:18:59;27.70;99.90
35633;DHT22;21754;48.216;-1.628;2022-08-03T18:21:25;27.60;99.90
35633;DHT22;21754;48.216;-1.628;2022-08-03T18:23:54;27.40;99.90
35633;DHT22;21754;48.216;-1.628;2022-08-03T18:26:19;27.20;99.90
35633;DHT22;21754;48.216;-1.628;2022-08-03T18:28:48;27.10;99.90
35633;DHT22;21754;48.216;-1.628;2022-08-03T18:31:15;27.00;99.90
35633;DHT22;21754;48.216;-1.628;2022-08-03T18:33:41;26.90;99.90
35633;DHT22;21754;48.216;-1.628;2022-08-03T18:36:14;26.80;99.90
35633;DHT22;21754;48.216;-1.628;2022-08-03T18:38:42;26.70;99.90
35633;DHT22;21754;48.216;-1.628;2022-08-03T18:41:08;26.70;99.90
35633;DHT22;21754;48.216;-1.628;2022-08-03T18:43:44;26.70;99.90
35633;DHT22;21754;48.216;-1.628;2022-08-03T18:46:33;26.40;99.90
35633;DHT22;21754;48.216;-1.628;2022-08-03T18:49:13;26.30;99.90
35633;DHT22;21754;48.216;-1.628;2022-08-03T18:51:43;26.10;99.90
35633;DHT22;21754;48.216;-1.628;2022-08-03T18:54:19;26.10;99.90
35633;DHT22;21754;48.216;-1.628;2022-08-03T18:56:52;26.10;99.90
35633;DHT22;21754;48.216;-1.628;2022-08-03T19:02:08;26.10;99.90
35633;DHT22;21754;48.216;-1.628;2022-08-03T19:04:45;26.20;99.90
35633;DHT22;21754;48.216;-1.628;2022-08-03T19:07:16;26.30;99.90
35633;DHT22;21754;48.216;-1.628;2022-08-03T19:09:58;26.20;99.90
35633;DHT22;21754;48.216;-1.628;2022-08-03T19:12:36;26.00;99.90
35633;DHT22;21754;48.216;-1.628;2022-08-03T19:15:10;25.80;99.90
35633;DHT22;21754;48.216;-1.628;2022-08-03T19:17:41;25.80;99.90
35633;DHT22;21754;48.216;-1.628;2022-08-03T19:20:08;25.60;99.90
35633;DHT22;21754;48.216;-1.628;2022-08-03T19:22:36;25.30;99.90
35633;DHT22;21754;48.216;-1.628;2022-08-03T19:25:02;25.30;99.90
35633;DHT22;21754;48.216;-1.628;2022-08-03T19:27:29;25.00;99.90
35633;DHT22;21754;48.216;-1.628;2022-08-03T19:29:57;25.10;99.90
35633;DHT22;21754;48.216;-1.628;2022-08-03T19:32:25;25.00;99.90
35633;DHT22;21754;48.216;-1.628;2022-08-03T19:34:53;25.00;99.90
35633;DHT22;21754;48.216;-1.628;2022-08-03T19:37:20;25.00;99.90
35633;DHT22;21754;48.216;-1.628;2022-08-03T19:39:46;25.10;99.90
35633;DHT22;21754;48.216;-1.628;2022-08-03T19:42:14;25.10;99.90
35633;DHT22;21754;48.216;-1.628;2022-08-03T19:44:48;25.10;99.90
35633;DHT22;21754;48.216;-1.628;2022-08-03T19:47:27;24.80;99.90
35633;DHT22;21754;48.216;-1.628;2022-08-03T19:49:56;24.70;99.90
35633;DHT22;21754;48.216;-1.628;2022-08-03T19:52:25;24.30;99.90
35633;DHT22;21754;48.216;-1.628;2022-08-03T19:54:54;24.20;99.90
35633;DHT22;21754;48.216;-1.628;2022-08-03T19:57:25;24.30;99.90
35633;DHT22;21754;48.216;-1.628;2022-08-03T19:59:55;24.40;99.90
35633;DHT22;21754;48.216;-1.628;2022-08-03T20:02:22;24.40;99.90
35633;DHT22;21754;48.216;-1.628;2022-08-03T20:04:48;24.30;99.90
35633;DHT22;21754;48.216;-1.628;2022-08-03T20:07:14;24.30;99.90
35633;DHT22;21754;48.216;-1.628;2022-08-03T20:09:40;24.20;99.90
35633;DHT22;21754;48.216;-1.628;2022-08-03T20:12:08;24.10;99.90
35633;DHT22;21754;48.216;-1.628;2022-08-03T20:14:37;24.10;99.90
35633;DHT22;21754;48.216;-1.628;2022-08-03T20:17:03;23.90;99.90
35633;DHT22;21754;48.216;-1.628;2022-08-03T20:19:28;23.90;99.90
35633;DHT22;21754;48.216;-1.628;2022-08-03T20:21:54;23.90;99.90
35633;DHT22;21754;48.216;-1.628;2022-08-03T20:24:33;23.60;99.90
35633;DHT22;21754;48.216;-1.628;2022-08-03T20:26:59;23.70;99.90
35633;DHT22;21754;48.216;-1.628;2022-08-03T20:29:38;23.80;99.90
35633;DHT22;21754;48.216;-1.628;2022-08-03T20:32:09;23.70;99.90
35633;DHT22;21754;48.216;-1.628;2022-08-03T20:34:34;23.60;99.90
35633;DHT22;21754;48.216;-1.628;2022-08-03T20:37:00;23.70;99.90
35633;DHT22;21754;48.216;-1.628;2022-08-03T20:39:26;23.70;99.90
35633;DHT22;21754;48.216;-1.628;2022-08-03T20:41:52;23.80;99.90
35633;DHT22;21754;48.216;-1.628;2022-08-03T20:44:18;23.60;99.90
35633;DHT22;21754;48.216;-1.628;2022-08-03T20:46:43;23.40;99.90
35633;DHT22;21754;48.216;-1.628;2022-08-03T20:49:10;23.50;99.90
35633;DHT22;21754;48.216;-1.628;2022-08-03T20:51:37;23.60;99.90
35633;DHT22;21754;48.216;-1.628;2022-08-03T20:54:05;23.60;99.90
35633;DHT22;21754;48.216;-1.628;2022-08-03T20:56:32;23.50;99.90
35633;DHT22;21754;48.216;-1.628;2022-08-03T20:59:01;23.50;99.90
35633;DHT22;21754;48.216;-1.628;2022-08-03T21:01:27;23.60;99.90
35633;DHT22;21754;48.216;-1.628;2022-08-03T21:03:55;23.60;99.90
35633;DHT22;21754;48.216;-1.628;2022-08-03T21:06:23;23.70;99.90
35633;DHT22;21754;48.216;-1.628;2022-08-03T21:08:52;23.70;99.90
35633;DHT22;21754;48.216;-1.628;2022-08-03T21:11:22;23.80;99.90
35633;DHT22;21754;48.216;-1.628;2022-08-03T21:13:59;23.80;99.90
35633;DHT22;21754;48.216;-1.628;2022-08-03T21:16:28;23.80;99.90
35633;DHT22;21754;48.216;-1.628;2022-08-03T21:18:58;23.90;99.90
35633;DHT22;21754;48.216;-1.628;2022-08-03T21:21:25;23.90;99.90
35633;DHT22;21754;48.216;-1.628;2022-08-03T21:23:55;23.90;99.90
35633;DHT22;21754;48.216;-1.628;2022-08-03T21:26:24;23.80;99.90
35633;DHT22;21754;48.216;-1.628;2022-08-03T21:28:52;23.80;99.90
35633;DHT22;21754;48.216;-1.628;2022-08-03T21:31:20;23.80;99.90
35633;DHT22;21754;48.216;-1.628;2022-08-03T21:33:46;23.80;99.90
35633;DHT22;21754;48.216;-1.628;2022-08-03T21:36:13;23.80;99.90
35633;DHT22;21754;48.216;-1.628;2022-08-03T21:38:40;23.80;99.90
35633;DHT22;21754;48.216;-1.628;2022-08-03T21:41:06;23.90;99.90
35633;DHT22;21754;48.216;-1.628;2022-08-03T21:43:35;23.80;99.90
35633;DHT22;21754;48.216;-1.628;2022-08-03T21:46:03;23.70;99.90
35633;DHT22;21754;48.216;-1.628;2022-08-03T21:48:37;23.70;99.90
35633;DHT22;21754;48.216;-1.628;2022-08-03T21:51:04;23.70;99.90
35633;DHT22;21754;48.216;-1.628;2022-08-03T21:53:31;23.70;99.90
35633;DHT22;21754;48.216;-1.628;2022-08-03T21:56:02;23.70;99.90
35633;DHT22;21754;48.216;-1.628;2022-08-03T21:58:31;23.70;99.90
35633;DHT22;21754;48.216;-1.628;2022-08-03T22:00:58;23.60;99.90
35633;DHT22;21754;48.216;-1.628;2022-08-03T22:03:24;23.50;99.90
35633;DHT22;21754;48.216;-1.628;2022-08-03T22:05:51;23.50;99.90
35633;DHT22;21754;48.216;-1.628;2022-08-03T22:08:17;23.40;99.90
35633;DHT22;21754;48.216;-1.628;2022-08-03T22:10:44;23.40;99.90
35633;DHT22;21754;48.216;-1.628;2022-08-03T22:13:15;23.40;99.90
35633;DHT22;21754;48.216;-1.628;2022-08-03T22:15:41;23.40;99.90
35633;DHT22;21754;48.216;-1.628;2022-08-03T22:18:07;23.40;99.90
35633;DHT22;21754;48.216;-1.628;2022-08-03T22:20:33;23.40;99.90
35633;DHT22;21754;48.216;-1.628;2022-08-03T22:23:02;23.20;99.90
35633;DHT22;21754;48.216;-1.628;2022-08-03T22:25:35;23.10;99.90
35633;DHT22;21754;48.216;-1.628;2022-08-03T22:28:10;23.10;99.90
35633;DHT22;21754;48.216;-1.628;2022-08-03T22:30:37;23.10;99.90
35633;DHT22;21754;48.216;-1.628;2022-08-03T22:33:05;23.10;99.90
35633;DHT22;21754;48.216;-1.628;2022-08-03T22:35:31;23.20;99.90
35633;DHT22;21754;48.216;-1.628;2022-08-03T22:37:59;23.30;99.90
35633;DHT22;21754;48.216;-1.628;2022-08-03T22:40:27;23.40;99.90
35633;DHT22;21754;48.216;-1.628;2022-08-03T22:42:53;23.40;99.90
35633;DHT22;21754;48.216;-1.628;2022-08-03T22:45:19;23.40;99.90
35633;DHT22;21754;48.216;-1.628;2022-08-03T22:47:45;23.40;99.90
35633;DHT22;21754;48.216;-1.628;2022-08-03T22:57:35;23.40;99.90
35633;DHT22;21754;48.216;-1.628;2022-08-03T23:32:04;22.80;99.90
35633;DHT22;21754;48.216;-1.628;2022-08-03T23:34:31;22.80;99.90
